Bookmark and Share
Track history (hours):
 

Stolt Dipper

Last reported at 2014-Apr-24 11:28 UTC. Time now 2014-Apr-24 14:05 UTC.
Position N 53°40' E 004°51'.

Length 96 m; draft 5.4 m.

Type: Ship (hazmat cat B). MMSI: 319036000.

NotesDate/timePositionNaut miles runAvg speedWind from/ knotsBaromVisibWave heightAir tempDewpointWater temp
2014-Apr-24 11:28N 53°40' E 004°51'1213.1
2014-Apr-24 10:33N 53°29' E 004°45'5212.2
2014-Apr-24 06:20N 52°43' E 004°07'911.0
2014-Apr-24 05:29N 52°35' E 003°58'1010.7
2014-Apr-24 04:33N 52°25' E 003°53'1010.5
2014-Apr-24 03:33N 52°15' E 003°52'1110.8
2014-Apr-24 02:33N 52°04' E 003°54'1110.8
2014-Apr-24 01:33N 51°58' E 004°08'4 0.2
2014-Apr-23 04:17N 51°55' E 004°13'3 4.5
2014-Apr-23 03:33N 51°57' E 004°09'6 5.5
2014-Apr-23 02:33N 51°54' E 004°17'1 0.3
2014-Apr-22 23:29N 51°53' E 004°17'0 0.0
2014-Apr-22 22:29N 51°53' E 004°17'0 0.0
2014-Apr-22 21:08N 51°53' E 004°17'0 0.0
2014-Apr-22 20:29N 51°53' E 004°17'0 0.0
2014-Apr-22 15:29N 51°53' E 004°17'0 0.0
2014-Apr-22 14:11N 51°53' E 004°17'0 0.0
2014-Apr-22 13:23N 51°53' E 004°17'0 0.0
2014-Apr-22 06:32N 51°53' E 004°17'158 7.1
2014-Apr-21 08:14N 51°53' E 000°00'159156.9
2014-Apr-21 07:13N 51°53' E 004°19'0 0.0
2014-Apr-21 06:07N 51°53' E 004°19'0 0.0
2014-Apr-21 05:25N 51°53' E 004°19'0 0.0
2014-Apr-21 04:19N 51°53' E 004°19'0 0.0
2014-Apr-21 03:25N 51°53' E 004°19'0 0.0
2014-Apr-21 02:25N 51°53' E 004°19'0 0.0
2014-Apr-21 00:25N 51°53' E 004°19'0 0.0
2014-Apr-20 22:13N 51°53' E 004°19'0 0.0
2014-Apr-20 21:13N 51°53' E 004°19'0 0.0
2014-Apr-20 20:13N 51°53' E 004°19'0 0.0
2014-Apr-20 17:25N 51°53' E 004°19'0 0.0
2014-Apr-20 16:07N 51°53' E 004°19'0 0.0
2014-Apr-20 15:13N 51°53' E 004°19'0 0.0
2014-Apr-20 14:31N 51°53' E 004°19'0 0.0
2014-Apr-20 13:28N 51°53' E 004°19'0 0.0
2014-Apr-20 12:13N 51°53' E 004°19'0 0.0
2014-Apr-20 10:31N 51°53' E 004°19'0 0.0
2014-Apr-20 06:31N 51°53' E 004°19'0 0.0
2014-Apr-20 05:19N 51°53' E 004°19'0 0.0
2014-Apr-20 04:16N 51°53' E 004°19'0 0.0
2014-Apr-20 03:25N 51°53' E 004°19'0 0.0
2014-Apr-20 02:25N 51°53' E 004°19'0 0.0
2014-Apr-20 00:28N 51°53' E 004°19'3 3.3
2014-Apr-19 23:33N 51°55' E 004°14'10 9.7
2014-Apr-19 22:33N 51°60' E 004°01'10 9.7
2014-Apr-19 21:33N 51°59' E 003°45'10 9.7
2014-Apr-19 20:33N 51°55' E 003°30'3 3.2
2014-Apr-19 19:33N 51°53' E 003°27'0 0.1
2014-Apr-19 18:33N 51°53' E 003°27'0 0.0
2014-Apr-19 17:06N 51°53' E 003°27'0 0.0
2014-Apr-19 16:30N 51°53' E 003°27'0 0.0
2014-Apr-19 15:24N 51°53' E 003°27'43 1.8
2014-Apr-18 15:33N 51°35' E 002°24'1211.7
2014-Apr-18 14:33N 51°26' E 002°13'1211.7
2014-Apr-18 13:32N 51°15' E 002°05'1212.0
2014-Apr-18 12:33N 51°08' E 001°49'1311.4
2014-Apr-18 11:26N 50°60' E 001°34'39 9.4
2014-Apr-18 07:18N 50°30' E 000°55'810.3
2014-Apr-18 06:33N 50°28' E 000°43'1010.2
2014-Apr-18 05:33N 50°25' E 000°28'6811.4
2014-Apr-17 23:33N 50°07' W 001°15'  

Dump ship's entire track history

sailing weather and tide predictions

Stolt Dipper — ZCMY3 — position and weather